sensor_id;sensor_type;location;lat;lon;timestamp;P1;durP1;ratioP1;P2;durP2;ratioP2
15425;SDS011;7812;50.072;7.036;2022-11-20T00:00:10;7.67;;;6.53;;
15425;SDS011;7812;50.072;7.036;2022-11-20T00:02:37;6.57;;;5.90;;
15425;SDS011;7812;50.072;7.036;2022-11-20T00:05:03;7.53;;;6.73;;
15425;SDS011;7812;50.072;7.036;2022-11-20T00:07:29;7.33;;;6.30;;
15425;SDS011;7812;50.072;7.036;2022-11-20T00:09:54;8.03;;;7.00;;
15425;SDS011;7812;50.072;7.036;2022-11-20T00:12:20;7.43;;;6.73;;
15425;SDS011;7812;50.072;7.036;2022-11-20T00:14:46;6.77;;;5.83;;
15425;SDS011;7812;50.072;7.036;2022-11-20T00:17:12;8.17;;;6.73;;
15425;SDS011;7812;50.072;7.036;2022-11-20T00:19:38;8.80;;;7.50;;
15425;SDS011;7812;50.072;7.036;2022-11-20T00:22:03;8.33;;;7.03;;
15425;SDS011;7812;50.072;7.036;2022-11-20T00:24:29;8.33;;;6.90;;
15425;SDS011;7812;50.072;7.036;2022-11-20T00:26:55;8.57;;;6.80;;
15425;SDS011;7812;50.072;7.036;2022-11-20T00:29:21;8.73;;;7.60;;
15425;SDS011;7812;50.072;7.036;2022-11-20T00:31:47;9.03;;;7.17;;
15425;SDS011;7812;50.072;7.036;2022-11-20T00:34:13;8.17;;;6.87;;
15425;SDS011;7812;50.072;7.036;2022-11-20T00:36:38;7.77;;;6.93;;
15425;SDS011;7812;50.072;7.036;2022-11-20T00:39:04;8.73;;;7.17;;
15425;SDS011;7812;50.072;7.036;2022-11-20T00:41:30;8.87;;;7.23;;
15425;SDS011;7812;50.072;7.036;2022-11-20T00:43:56;9.37;;;8.00;;
15425;SDS011;7812;50.072;7.036;2022-11-20T00:46:23;8.47;;;7.20;;
15425;SDS011;7812;50.072;7.036;2022-11-20T00:48:51;10.03;;;7.87;;
15425;SDS011;7812;50.072;7.036;2022-11-20T00:51:18;9.97;;;8.13;;
15425;SDS011;7812;50.072;7.036;2022-11-20T00:53:46;7.70;;;6.60;;
15425;SDS011;7812;50.072;7.036;2022-11-20T00:56:13;9.13;;;7.70;;
15425;SDS011;7812;50.072;7.036;2022-11-20T00:58:41;8.80;;;7.60;;
15425;SDS011;7812;50.072;7.036;2022-11-20T01:03:39;9.77;;;7.83;;
15425;SDS011;7812;50.072;7.036;2022-11-20T01:06:09;10.20;;;8.53;;
15425;SDS011;7812;50.072;7.036;2022-11-20T01:08:43;11.43;;;8.40;;
15425;SDS011;7812;50.072;7.036;2022-11-20T01:11:10;9.97;;;7.97;;
15425;SDS011;7812;50.072;7.036;2022-11-20T01:13:40;10.87;;;8.30;;
15425;SDS011;7812;50.072;7.036;2022-11-20T01:18:35;9.77;;;7.50;;
15425;SDS011;7812;50.072;7.036;2022-11-20T01:21:03;12.23;;;9.43;;
15425;SDS011;7812;50.072;7.036;2022-11-20T01:23:35;10.77;;;8.63;;
15425;SDS011;7812;50.072;7.036;2022-11-20T01:26:09;10.20;;;7.93;;
15425;SDS011;7812;50.072;7.036;2022-11-20T01:28:37;12.97;;;9.20;;
15425;SDS011;7812;50.072;7.036;2022-11-20T01:31:11;10.33;;;8.20;;
15425;SDS011;7812;50.072;7.036;2022-11-20T01:33:42;11.13;;;8.20;;
15425;SDS011;7812;50.072;7.036;2022-11-20T01:36:09;13.37;;;9.20;;
15425;SDS011;7812;50.072;7.036;2022-11-20T01:38:36;10.37;;;8.23;;
15425;SDS011;7812;50.072;7.036;2022-11-20T01:41:02;9.27;;;7.47;;
15425;SDS011;7812;50.072;7.036;2022-11-20T01:43:28;12.03;;;9.10;;
15425;SDS011;7812;50.072;7.036;2022-11-20T01:48:50;9.57;;;8.00;;
15425;SDS011;7812;50.072;7.036;2022-11-20T01:51:32;11.23;;;9.27;;
15425;SDS011;7812;50.072;7.036;2022-11-20T01:54:28;11.57;;;9.00;;
15425;SDS011;7812;50.072;7.036;2022-11-20T01:57:01;11.37;;;8.67;;
15425;SDS011;7812;50.072;7.036;2022-11-20T01:59:31;9.80;;;7.97;;
15425;SDS011;7812;50.072;7.036;2022-11-20T02:01:57;10.17;;;8.53;;
15425;SDS011;7812;50.072;7.036;2022-11-20T02:04:23;12.10;;;9.10;;
15425;SDS011;7812;50.072;7.036;2022-11-20T02:06:52;12.10;;;9.53;;
15425;SDS011;7812;50.072;7.036;2022-11-20T02:09:24;11.87;;;9.13;;
15425;SDS011;7812;50.072;7.036;2022-11-20T02:11:50;9.63;;;8.33;;
15425;SDS011;7812;50.072;7.036;2022-11-20T02:14:17;10.33;;;8.23;;
15425;SDS011;7812;50.072;7.036;2022-11-20T02:16:46;11.03;;;9.10;;
15425;SDS011;7812;50.072;7.036;2022-11-20T02:19:22;11.47;;;8.97;;
15425;SDS011;7812;50.072;7.036;2022-11-20T02:22:00;14.00;;;10.67;;
15425;SDS011;7812;50.072;7.036;2022-11-20T02:24:33;13.30;;;9.73;;
15425;SDS011;7812;50.072;7.036;2022-11-20T02:27:03;12.37;;;9.33;;
15425;SDS011;7812;50.072;7.036;2022-11-20T02:32:21;13.83;;;10.03;;
15425;SDS011;7812;50.072;7.036;2022-11-20T02:34:47;12.53;;;10.03;;
15425;SDS011;7812;50.072;7.036;2022-11-20T02:37:13;12.53;;;10.00;;
15425;SDS011;7812;50.072;7.036;2022-11-20T02:39:40;13.07;;;10.23;;
15425;SDS011;7812;50.072;7.036;2022-11-20T02:42:08;11.73;;;9.23;;
15425;SDS011;7812;50.072;7.036;2022-11-20T02:44:34;13.27;;;10.70;;
15425;SDS011;7812;50.072;7.036;2022-11-20T02:47:00;12.60;;;9.97;;
15425;SDS011;7812;50.072;7.036;2022-11-20T02:49:25;12.73;;;9.93;;
15425;SDS011;7812;50.072;7.036;2022-11-20T02:51:52;14.17;;;10.97;;
15425;SDS011;7812;50.072;7.036;2022-11-20T02:54:18;15.60;;;11.13;;
15425;SDS011;7812;50.072;7.036;2022-11-20T02:56:43;15.00;;;11.23;;
15425;SDS011;7812;50.072;7.036;2022-11-20T02:59:09;16.23;;;10.93;;
15425;SDS011;7812;50.072;7.036;2022-11-20T03:01:35;14.23;;;10.27;;
15425;SDS011;7812;50.072;7.036;2022-11-20T03:04:04;13.93;;;10.30;;
15425;SDS011;7812;50.072;7.036;2022-11-20T03:06:30;13.30;;;10.17;;
15425;SDS011;7812;50.072;7.036;2022-11-20T03:08:56;16.77;;;11.30;;
15425;SDS011;7812;50.072;7.036;2022-11-20T03:11:22;12.40;;;9.53;;
15425;SDS011;7812;50.072;7.036;2022-11-20T03:13:48;11.47;;;8.70;;
15425;SDS011;7812;50.072;7.036;2022-11-20T03:16:15;11.67;;;9.30;;
15425;SDS011;7812;50.072;7.036;2022-11-20T03:18:44;14.97;;;10.63;;
15425;SDS011;7812;50.072;7.036;2022-11-20T03:21:11;13.33;;;10.17;;
15425;SDS011;7812;50.072;7.036;2022-11-20T03:23:38;14.60;;;10.60;;
15425;SDS011;7812;50.072;7.036;2022-11-20T03:26:15;14.57;;;10.43;;
15425;SDS011;7812;50.072;7.036;2022-11-20T03:28:46;13.50;;;9.50;;
15425;SDS011;7812;50.072;7.036;2022-11-20T03:31:22;10.30;;;8.07;;
15425;SDS011;7812;50.072;7.036;2022-11-20T03:33:51;12.80;;;9.43;;
15425;SDS011;7812;50.072;7.036;2022-11-20T03:36:18;14.53;;;10.23;;
15425;SDS011;7812;50.072;7.036;2022-11-20T03:38:47;15.00;;;10.47;;
15425;SDS011;7812;50.072;7.036;2022-11-20T03:41:14;12.80;;;9.20;;
15425;SDS011;7812;50.072;7.036;2022-11-20T03:43:42;11.90;;;7.77;;
15425;SDS011;7812;50.072;7.036;2022-11-20T03:46:13;12.40;;;8.60;;
15425;SDS011;7812;50.072;7.036;2022-11-20T03:48:39;12.00;;;9.30;;
15425;SDS011;7812;50.072;7.036;2022-11-20T03:53:38;12.63;;;9.83;;
15425;SDS011;7812;50.072;7.036;2022-11-20T03:56:05;11.30;;;8.63;;
15425;SDS011;7812;50.072;7.036;2022-11-20T03:58:32;13.37;;;9.23;;
15425;SDS011;7812;50.072;7.036;2022-11-20T04:01:36;11.63;;;8.73;;
15425;SDS011;7812;50.072;7.036;2022-11-20T04:03:58;12.07;;;8.80;;
15425;SDS011;7812;50.072;7.036;2022-11-20T04:06:30;11.30;;;8.60;;
15425;SDS011;7812;50.072;7.036;2022-11-20T04:09:01;13.23;;;10.00;;
15425;SDS011;7812;50.072;7.036;2022-11-20T04:11:30;12.77;;;10.17;;
15425;SDS011;7812;50.072;7.036;2022-11-20T04:13:59;12.63;;;9.33;;
15425;SDS011;7812;50.072;7.036;2022-11-20T04:16:28;10.70;;;8.40;;
15425;SDS011;7812;50.072;7.036;2022-11-20T04:18:57;10.90;;;8.90;;
15425;SDS011;7812;50.072;7.036;2022-11-20T04:21:25;12.47;;;9.10;;
15425;SDS011;7812;50.072;7.036;2022-11-20T04:23:51;11.73;;;8.87;;
15425;SDS011;7812;50.072;7.036;2022-11-20T04:26:18;11.07;;;8.47;;
15425;SDS011;7812;50.072;7.036;2022-11-20T04:28:44;14.63;;;9.97;;
15425;SDS011;7812;50.072;7.036;2022-11-20T04:31:11;10.53;;;8.03;;
15425;SDS011;7812;50.072;7.036;2022-11-20T04:33:38;11.33;;;8.83;;
15425;SDS011;7812;50.072;7.036;2022-11-20T04:36:06;10.63;;;7.93;;
15425;SDS011;7812;50.072;7.036;2022-11-20T04:38:36;12.53;;;9.37;;
15425;SDS011;7812;50.072;7.036;2022-11-20T04:41:03;14.63;;;10.50;;
15425;SDS011;7812;50.072;7.036;2022-11-20T04:43:30;11.13;;;9.00;;
15425;SDS011;7812;50.072;7.036;2022-11-20T04:45:56;12.50;;;9.53;;
15425;SDS011;7812;50.072;7.036;2022-11-20T04:48:23;14.40;;;10.10;;
15425;SDS011;7812;50.072;7.036;2022-11-20T04:50:50;12.50;;;8.93;;
15425;SDS011;7812;50.072;7.036;2022-11-20T04:53:16;11.10;;;8.57;;
15425;SDS011;7812;50.072;7.036;2022-11-20T04:55:43;11.03;;;7.97;;
15425;SDS011;7812;50.072;7.036;2022-11-20T04:58:09;10.77;;;8.73;;
15425;SDS011;7812;50.072;7.036;2022-11-20T05:00:36;11.70;;;8.43;;
15425;SDS011;7812;50.072;7.036;2022-11-20T05:03:02;11.70;;;9.07;;
15425;SDS011;7812;50.072;7.036;2022-11-20T05:05:28;10.07;;;8.03;;
15425;SDS011;7812;50.072;7.036;2022-11-20T05:07:55;11.53;;;8.13;;
15425;SDS011;7812;50.072;7.036;2022-11-20T05:10:22;11.27;;;8.73;;
15425;SDS011;7812;50.072;7.036;2022-11-20T05:12:49;16.90;;;10.07;;
15425;SDS011;7812;50.072;7.036;2022-11-20T05:15:14;13.23;;;9.73;;
15425;SDS011;7812;50.072;7.036;2022-11-20T05:17:40;8.80;;;7.33;;
15425;SDS011;7812;50.072;7.036;2022-11-20T05:20:11;10.17;;;7.67;;
15425;SDS011;7812;50.072;7.036;2022-11-20T05:22:37;10.73;;;7.87;;
15425;SDS011;7812;50.072;7.036;2022-11-20T05:25:03;10.53;;;8.30;;
15425;SDS011;7812;50.072;7.036;2022-11-20T05:27:29;10.47;;;8.83;;
15425;SDS011;7812;50.072;7.036;2022-11-20T05:29:55;14.03;;;8.53;;
15425;SDS011;7812;50.072;7.036;2022-11-20T05:32:20;11.17;;;8.07;;
15425;SDS011;7812;50.072;7.036;2022-11-20T05:34:50;11.70;;;8.63;;
15425;SDS011;7812;50.072;7.036;2022-11-20T05:37:16;10.97;;;8.53;;
15425;SDS011;7812;50.072;7.036;2022-11-20T05:39:42;12.27;;;8.53;;
15425;SDS011;7812;50.072;7.036;2022-11-20T05:42:08;12.37;;;9.13;;
15425;SDS011;7812;50.072;7.036;2022-11-20T05:44:52;13.17;;;9.20;;
15425;SDS011;7812;50.072;7.036;2022-11-20T05:47:18;11.70;;;8.47;;
15425;SDS011;7812;50.072;7.036;2022-11-20T05:49:44;10.73;;;8.60;;
15425;SDS011;7812;50.072;7.036;2022-11-20T05:52:10;9.87;;;7.43;;
15425;SDS011;7812;50.072;7.036;2022-11-20T05:54:36;12.90;;;8.80;;
15425;SDS011;7812;50.072;7.036;2022-11-20T05:57:02;10.67;;;7.80;;
15425;SDS011;7812;50.072;7.036;2022-11-20T05:59:28;9.93;;;7.90;;
15425;SDS011;7812;50.072;7.036;2022-11-20T06:01:54;10.87;;;8.67;;
15425;SDS011;7812;50.072;7.036;2022-11-20T06:04:20;12.90;;;9.53;;
15425;SDS011;7812;50.072;7.036;2022-11-20T06:06:46;10.30;;;8.87;;
15425;SDS011;7812;50.072;7.036;2022-11-20T06:09:12;12.57;;;9.53;;
15425;SDS011;7812;50.072;7.036;2022-11-20T06:11:37;13.60;;;11.00;;
15425;SDS011;7812;50.072;7.036;2022-11-20T06:14:03;10.70;;;9.03;;
15425;SDS011;7812;50.072;7.036;2022-11-20T06:16:29;11.97;;;9.27;;
15425;SDS011;7812;50.072;7.036;2022-11-20T06:18:55;13.00;;;8.57;;
15425;SDS011;7812;50.072;7.036;2022-11-20T06:21:21;12.07;;;9.20;;
15425;SDS011;7812;50.072;7.036;2022-11-20T06:23:48;12.20;;;9.03;;
15425;SDS011;7812;50.072;7.036;2022-11-20T06:26:16;16.27;;;8.93;;
15425;SDS011;7812;50.072;7.036;2022-11-20T06:28:44;9.53;;;7.67;;
15425;SDS011;7812;50.072;7.036;2022-11-20T06:31:11;13.33;;;8.83;;
15425;SDS011;7812;50.072;7.036;2022-11-20T06:33:38;15.03;;;10.60;;
15425;SDS011;7812;50.072;7.036;2022-11-20T06:36:05;12.87;;;9.07;;
15425;SDS011;7812;50.072;7.036;2022-11-20T06:38:31;10.73;;;8.60;;
15425;SDS011;7812;50.072;7.036;2022-11-20T06:40:57;11.87;;;9.23;;
15425;SDS011;7812;50.072;7.036;2022-11-20T06:43:23;11.23;;;8.90;;
15425;SDS011;7812;50.072;7.036;2022-11-20T06:45:53;11.03;;;7.73;;
15425;SDS011;7812;50.072;7.036;2022-11-20T06:48:20;15.07;;;10.33;;
15425;SDS011;7812;50.072;7.036;2022-11-20T06:50:47;11.17;;;9.20;;
15425;SDS011;7812;50.072;7.036;2022-11-20T06:53:12;12.90;;;8.47;;
15425;SDS011;7812;50.072;7.036;2022-11-20T06:55:41;11.57;;;9.17;;
15425;SDS011;7812;50.072;7.036;2022-11-20T06:58:08;11.87;;;9.27;;
15425;SDS011;7812;50.072;7.036;2022-11-20T07:00:34;12.77;;;9.17;;
15425;SDS011;7812;50.072;7.036;2022-11-20T07:03:04;12.50;;;10.00;;
15425;SDS011;7812;50.072;7.036;2022-11-20T07:05:30;10.27;;;8.30;;
15425;SDS011;7812;50.072;7.036;2022-11-20T07:07:57;11.57;;;8.70;;
15425;SDS011;7812;50.072;7.036;2022-11-20T07:10:23;13.00;;;8.47;;
15425;SDS011;7812;50.072;7.036;2022-11-20T07:12:50;13.47;;;9.23;;
15425;SDS011;7812;50.072;7.036;2022-11-20T07:15:19;15.27;;;9.03;;
15425;SDS011;7812;50.072;7.036;2022-11-20T07:17:46;12.03;;;8.30;;
15425;SDS011;7812;50.072;7.036;2022-11-20T07:20:12;11.00;;;8.23;;
15425;SDS011;7812;50.072;7.036;2022-11-20T07:22:39;12.17;;;8.63;;
15425;SDS011;7812;50.072;7.036;2022-11-20T07:25:05;10.07;;;7.80;;
15425;SDS011;7812;50.072;7.036;2022-11-20T07:27:32;11.43;;;8.83;;
15425;SDS011;7812;50.072;7.036;2022-11-20T07:29:57;11.23;;;8.03;;
15425;SDS011;7812;50.072;7.036;2022-11-20T07:32:23;10.40;;;7.57;;
15425;SDS011;7812;50.072;7.036;2022-11-20T07:34:49;10.07;;;7.47;;
15425;SDS011;7812;50.072;7.036;2022-11-20T07:37:15;10.43;;;7.93;;
15425;SDS011;7812;50.072;7.036;2022-11-20T07:39:47;10.63;;;7.30;;
15425;SDS011;7812;50.072;7.036;2022-11-20T07:42:16;12.57;;;7.50;;
15425;SDS011;7812;50.072;7.036;2022-11-20T07:44:44;10.33;;;7.33;;
15425;SDS011;7812;50.072;7.036;2022-11-20T07:47:10;10.87;;;7.73;;
15425;SDS011;7812;50.072;7.036;2022-11-20T07:49:36;11.17;;;8.00;;
15425;SDS011;7812;50.072;7.036;2022-11-20T07:52:02;11.13;;;7.83;;
15425;SDS011;7812;50.072;7.036;2022-11-20T07:54:28;8.77;;;6.90;;
15425;SDS011;7812;50.072;7.036;2022-11-20T07:56:54;9.17;;;7.10;;
15425;SDS011;7812;50.072;7.036;2022-11-20T07:59:19;10.20;;;7.30;;
15425;SDS011;7812;50.072;7.036;2022-11-20T08:01:45;12.87;;;10.57;;
15425;SDS011;7812;50.072;7.036;2022-11-20T08:04:14;12.90;;;11.50;;
15425;SDS011;7812;50.072;7.036;2022-11-20T08:06:41;13.30;;;10.87;;
15425;SDS011;7812;50.072;7.036;2022-11-20T08:09:07;11.47;;;8.53;;
15425;SDS011;7812;50.072;7.036;2022-11-20T08:11:33;9.33;;;7.77;;
15425;SDS011;7812;50.072;7.036;2022-11-20T08:14:17;10.10;;;8.17;;
15425;SDS011;7812;50.072;7.036;2022-11-20T08:16:44;15.17;;;8.40;;
15425;SDS011;7812;50.072;7.036;2022-11-20T08:19:11;10.53;;;8.40;;
15425;SDS011;7812;50.072;7.036;2022-11-20T08:21:38;9.80;;;7.30;;
15425;SDS011;7812;50.072;7.036;2022-11-20T08:24:05;11.53;;;8.03;;
15425;SDS011;7812;50.072;7.036;2022-11-20T08:26:31;13.03;;;8.70;;
15425;SDS011;7812;50.072;7.036;2022-11-20T08:28:58;10.50;;;8.20;;
15425;SDS011;7812;50.072;7.036;2022-11-20T08:31:25;12.60;;;8.37;;
15425;SDS011;7812;50.072;7.036;2022-11-20T08:33:51;10.23;;;7.47;;
15425;SDS011;7812;50.072;7.036;2022-11-20T08:36:18;10.37;;;7.97;;
15425;SDS011;7812;50.072;7.036;2022-11-20T08:38:52;14.67;;;9.03;;
15425;SDS011;7812;50.072;7.036;2022-11-20T08:41:19;13.80;;;9.70;;
15425;SDS011;7812;50.072;7.036;2022-11-20T08:44:01;14.07;;;8.43;;
15425;SDS011;7812;50.072;7.036;2022-11-20T08:46:41;15.83;;;10.10;;
15425;SDS011;7812;50.072;7.036;2022-11-20T08:49:09;14.33;;;9.27;;
15425;SDS011;7812;50.072;7.036;2022-11-20T08:51:36;11.13;;;7.47;;
15425;SDS011;7812;50.072;7.036;2022-11-20T08:54:03;13.23;;;8.60;;
15425;SDS011;7812;50.072;7.036;2022-11-20T08:56:30;10.53;;;6.97;;
15425;SDS011;7812;50.072;7.036;2022-11-20T08:58:56;10.83;;;8.37;;
15425;SDS011;7812;50.072;7.036;2022-11-20T09:01:24;12.10;;;7.27;;
15425;SDS011;7812;50.072;7.036;2022-11-20T09:03:50;13.30;;;7.40;;
15425;SDS011;7812;50.072;7.036;2022-11-20T09:06:29;8.27;;;7.03;;
15425;SDS011;7812;50.072;7.036;2022-11-20T09:08:55;10.37;;;7.30;;
15425;SDS011;7812;50.072;7.036;2022-11-20T09:11:21;10.73;;;7.87;;
15425;SDS011;7812;50.072;7.036;2022-11-20T09:13:48;8.50;;;7.07;;
15425;SDS011;7812;50.072;7.036;2022-11-20T09:16:14;10.67;;;7.63;;
15425;SDS011;7812;50.072;7.036;2022-11-20T09:18:40;9.57;;;7.17;;
15425;SDS011;7812;50.072;7.036;2022-11-20T09:21:07;9.80;;;7.43;;
15425;SDS011;7812;50.072;7.036;2022-11-20T09:23:38;9.37;;;7.87;;
15425;SDS011;7812;50.072;7.036;2022-11-20T09:26:06;9.83;;;7.73;;
15425;SDS011;7812;50.072;7.036;2022-11-20T09:28:35;9.37;;;7.60;;
15425;SDS011;7812;50.072;7.036;2022-11-20T09:31:04;8.47;;;6.67;;
15425;SDS011;7812;50.072;7.036;2022-11-20T09:33:32;10.27;;;8.03;;
15425;SDS011;7812;50.072;7.036;2022-11-20T09:35:58;12.13;;;9.03;;
15425;SDS011;7812;50.072;7.036;2022-11-20T09:38:23;13.00;;;8.90;;
15425;SDS011;7812;50.072;7.036;2022-11-20T09:41:02;11.93;;;8.80;;
15425;SDS011;7812;50.072;7.036;2022-11-20T09:46:17;13.23;;;9.90;;
15425;SDS011;7812;50.072;7.036;2022-11-20T09:49:00;11.60;;;8.60;;
15425;SDS011;7812;50.072;7.036;2022-11-20T09:54:32;7.70;;;6.60;;
15425;SDS011;7812;50.072;7.036;2022-11-20T09:57:20;10.13;;;6.67;;
15425;SDS011;7812;50.072;7.036;2022-11-20T09:59:50;9.30;;;7.20;;
15425;SDS011;7812;50.072;7.036;2022-11-20T10:04:51;9.63;;;7.90;;
15425;SDS011;7812;50.072;7.036;2022-11-20T10:07:32;7.23;;;6.10;;
15425;SDS011;7812;50.072;7.036;2022-11-20T10:10:13;9.73;;;6.60;;
15425;SDS011;7812;50.072;7.036;2022-11-20T10:25:55;7.23;;;6.53;;
15425;SDS011;7812;50.072;7.036;2022-11-20T10:31:42;7.33;;;6.20;;
15425;SDS011;7812;50.072;7.036;2022-11-20T10:34:20;8.10;;;6.37;;
15425;SDS011;7812;50.072;7.036;2022-11-20T10:36:56;8.63;;;6.33;;
15425;SDS011;7812;50.072;7.036;2022-11-20T10:39:31;8.60;;;6.53;;
15425;SDS011;7812;50.072;7.036;2022-11-20T10:42:02;6.67;;;5.50;;
15425;SDS011;7812;50.072;7.036;2022-11-20T10:44:33;8.43;;;5.97;;
15425;SDS011;7812;50.072;7.036;2022-11-20T10:47:19;8.83;;;6.93;;
15425;SDS011;7812;50.072;7.036;2022-11-20T10:49:50;8.67;;;6.50;;
15425;SDS011;7812;50.072;7.036;2022-11-20T10:55:28;6.67;;;5.97;;
15425;SDS011;7812;50.072;7.036;2022-11-20T11:00:46;6.00;;;5.40;;
15425;SDS011;7812;50.072;7.036;2022-11-20T11:03:30;6.83;;;5.57;;
15425;SDS011;7812;50.072;7.036;2022-11-20T11:06:06;6.73;;;5.70;;
15425;SDS011;7812;50.072;7.036;2022-11-20T11:08:53;6.27;;;5.60;;
15425;SDS011;7812;50.072;7.036;2022-11-20T11:11:22;7.20;;;5.70;;
15425;SDS011;7812;50.072;7.036;2022-11-20T11:14:11;6.53;;;5.93;;
15425;SDS011;7812;50.072;7.036;2022-11-20T11:16:55;7.47;;;5.87;;
15425;SDS011;7812;50.072;7.036;2022-11-20T11:19:22;6.70;;;6.00;;
15425;SDS011;7812;50.072;7.036;2022-11-20T11:21:49;6.53;;;5.70;;
15425;SDS011;7812;50.072;7.036;2022-11-20T11:24:28;7.93;;;6.33;;
15425;SDS011;7812;50.072;7.036;2022-11-20T11:26:59;8.60;;;7.00;;
15425;SDS011;7812;50.072;7.036;2022-11-20T11:29:31;7.87;;;6.47;;
15425;SDS011;7812;50.072;7.036;2022-11-20T11:34:59;6.43;;;5.67;;
15425;SDS011;7812;50.072;7.036;2022-11-20T11:37:33;6.57;;;5.60;;
15425;SDS011;7812;50.072;7.036;2022-11-20T11:40:01;6.20;;;5.50;;
15425;SDS011;7812;50.072;7.036;2022-11-20T11:42:28;6.57;;;5.77;;
15425;SDS011;7812;50.072;7.036;2022-11-20T11:44:55;7.60;;;5.67;;
15425;SDS011;7812;50.072;7.036;2022-11-20T11:52:36;6.07;;;5.03;;
15425;SDS011;7812;50.072;7.036;2022-11-20T11:55:07;9.80;;;6.77;;
15425;SDS011;7812;50.072;7.036;2022-11-20T11:57:57;8.80;;;5.20;;
15425;SDS011;7812;50.072;7.036;2022-11-20T12:00:25;6.23;;;4.10;;
15425;SDS011;7812;50.072;7.036;2022-11-20T12:05:24;8.70;;;7.20;;
15425;SDS011;7812;50.072;7.036;2022-11-20T12:16:08;7.20;;;3.43;;
15425;SDS011;7812;50.072;7.036;2022-11-20T12:18:38;8.93;;;7.23;;
15425;SDS011;7812;50.072;7.036;2022-11-20T12:30:04;3.27;;;2.43;;
15425;SDS011;7812;50.072;7.036;2022-11-20T12:43:28;5.53;;;1.93;;
15425;SDS011;7812;50.072;7.036;2022-11-20T12:46:51;2.70;;;1.40;;
15425;SDS011;7812;50.072;7.036;2022-11-20T12:49:36;3.97;;;1.90;;
15425;SDS011;7812;50.072;7.036;2022-11-20T12:52:34;2.47;;;1.50;;
15425;SDS011;7812;50.072;7.036;2022-11-20T13:00:41;3.53;;;1.90;;
15425;SDS011;7812;50.072;7.036;2022-11-20T13:08:27;3.93;;;1.60;;
15425;SDS011;7812;50.072;7.036;2022-11-20T13:16:29;4.93;;;1.93;;
15425;SDS011;7812;50.072;7.036;2022-11-20T13:19:03;3.87;;;2.23;;
15425;SDS011;7812;50.072;7.036;2022-11-20T13:24:35;4.23;;;2.10;;
15425;SDS011;7812;50.072;7.036;2022-11-20T13:27:04;3.87;;;1.60;;
15425;SDS011;7812;50.072;7.036;2022-11-20T13:29:34;2.37;;;1.70;;
15425;SDS011;7812;50.072;7.036;2022-11-20T13:32:05;2.43;;;1.47;;
15425;SDS011;7812;50.072;7.036;2022-11-20T13:34:31;2.97;;;1.50;;
15425;SDS011;7812;50.072;7.036;2022-11-20T13:36:58;3.57;;;1.63;;
15425;SDS011;7812;50.072;7.036;2022-11-20T13:42:02;3.23;;;1.57;;
15425;SDS011;7812;50.072;7.036;2022-11-20T13:44:35;3.60;;;1.97;;
15425;SDS011;7812;50.072;7.036;2022-11-20T13:47:04;4.13;;;1.70;;
15425;SDS011;7812;50.072;7.036;2022-11-20T13:49:47;4.17;;;2.53;;
15425;SDS011;7812;50.072;7.036;2022-11-20T14:01:08;5.00;;;2.20;;
15425;SDS011;7812;50.072;7.036;2022-11-20T14:03:33;3.17;;;2.03;;
15425;SDS011;7812;50.072;7.036;2022-11-20T14:06:01;5.00;;;2.23;;
15425;SDS011;7812;50.072;7.036;2022-11-20T14:11:18;4.93;;;2.10;;
15425;SDS011;7812;50.072;7.036;2022-11-20T14:16:28;2.60;;;1.63;;
15425;SDS011;7812;50.072;7.036;2022-11-20T14:18:56;2.90;;;2.03;;
15425;SDS011;7812;50.072;7.036;2022-11-20T14:21:27;4.77;;;1.80;;
15425;SDS011;7812;50.072;7.036;2022-11-20T14:24:09;7.43;;;2.10;;
15425;SDS011;7812;50.072;7.036;2022-11-20T14:26:36;2.57;;;1.90;;
15425;SDS011;7812;50.072;7.036;2022-11-20T14:29:11;4.10;;;2.93;;
15425;SDS011;7812;50.072;7.036;2022-11-20T14:31:45;2.27;;;1.63;;
15425;SDS011;7812;50.072;7.036;2022-11-20T14:34:14;2.93;;;1.60;;
15425;SDS011;7812;50.072;7.036;2022-11-20T14:36:43;3.63;;;2.10;;
15425;SDS011;7812;50.072;7.036;2022-11-20T14:39:22;7.37;;;2.37;;
15425;SDS011;7812;50.072;7.036;2022-11-20T14:41:54;4.90;;;2.63;;
15425;SDS011;7812;50.072;7.036;2022-11-20T14:44:21;8.03;;;4.77;;
15425;SDS011;7812;50.072;7.036;2022-11-20T14:46:52;11.17;;;4.97;;
15425;SDS011;7812;50.072;7.036;2022-11-20T14:49:18;5.07;;;2.47;;
15425;SDS011;7812;50.072;7.036;2022-11-20T14:51:44;6.50;;;3.20;;
15425;SDS011;7812;50.072;7.036;2022-11-20T14:54:12;6.27;;;4.63;;
15425;SDS011;7812;50.072;7.036;2022-11-20T14:56:41;3.47;;;2.20;;
15425;SDS011;7812;50.072;7.036;2022-11-20T14:59:08;3.43;;;1.97;;
15425;SDS011;7812;50.072;7.036;2022-11-20T15:01:34;3.13;;;1.63;;
15425;SDS011;7812;50.072;7.036;2022-11-20T15:06:29;4.77;;;2.73;;
15425;SDS011;7812;50.072;7.036;2022-11-20T15:08:56;4.23;;;2.10;;
15425;SDS011;7812;50.072;7.036;2022-11-20T15:11:25;2.13;;;1.60;;
15425;SDS011;7812;50.072;7.036;2022-11-20T15:13:54;3.27;;;2.40;;
15425;SDS011;7812;50.072;7.036;2022-11-20T15:16:21;4.00;;;1.77;;
15425;SDS011;7812;50.072;7.036;2022-11-20T15:18:48;3.43;;;2.03;;
15425;SDS011;7812;50.072;7.036;2022-11-20T15:21:15;5.40;;;3.17;;
15425;SDS011;7812;50.072;7.036;2022-11-20T15:23:43;3.97;;;2.43;;
15425;SDS011;7812;50.072;7.036;2022-11-20T15:26:10;7.03;;;2.40;;
15425;SDS011;7812;50.072;7.036;2022-11-20T15:28:41;5.60;;;2.47;;
15425;SDS011;7812;50.072;7.036;2022-11-20T15:31:12;5.03;;;2.77;;
15425;SDS011;7812;50.072;7.036;2022-11-20T15:33:40;4.23;;;2.00;;
15425;SDS011;7812;50.072;7.036;2022-11-20T15:36:08;3.67;;;2.73;;
15425;SDS011;7812;50.072;7.036;2022-11-20T15:38:34;3.87;;;2.30;;
15425;SDS011;7812;50.072;7.036;2022-11-20T15:41:00;4.50;;;1.93;;
15425;SDS011;7812;50.072;7.036;2022-11-20T15:43:26;7.30;;;2.90;;
15425;SDS011;7812;50.072;7.036;2022-11-20T15:45:56;6.60;;;2.40;;
15425;SDS011;7812;50.072;7.036;2022-11-20T15:48:44;5.27;;;2.60;;
15425;SDS011;7812;50.072;7.036;2022-11-20T15:56:35;6.93;;;3.70;;
15425;SDS011;7812;50.072;7.036;2022-11-20T15:59:01;6.37;;;3.33;;
15425;SDS011;7812;50.072;7.036;2022-11-20T16:01:26;6.83;;;3.83;;
15425;SDS011;7812;50.072;7.036;2022-11-20T16:03:52;4.47;;;2.03;;
15425;SDS011;7812;50.072;7.036;2022-11-20T16:06:18;4.07;;;2.50;;
15425;SDS011;7812;50.072;7.036;2022-11-20T16:08:43;5.30;;;3.03;;
15425;SDS011;7812;50.072;7.036;2022-11-20T16:11:12;5.20;;;3.30;;
15425;SDS011;7812;50.072;7.036;2022-11-20T16:13:41;4.13;;;2.13;;
15425;SDS011;7812;50.072;7.036;2022-11-20T16:18:55;4.27;;;2.93;;
15425;SDS011;7812;50.072;7.036;2022-11-20T16:21:21;6.37;;;2.40;;
15425;SDS011;7812;50.072;7.036;2022-11-20T16:23:56;4.87;;;3.17;;
15425;SDS011;7812;50.072;7.036;2022-11-20T16:26:25;4.27;;;1.87;;
15425;SDS011;7812;50.072;7.036;2022-11-20T16:28:51;4.93;;;1.97;;
15425;SDS011;7812;50.072;7.036;2022-11-20T16:31:18;3.10;;;2.10;;
15425;SDS011;7812;50.072;7.036;2022-11-20T16:33:54;3.63;;;2.80;;
15425;SDS011;7812;50.072;7.036;2022-11-20T16:36:22;3.10;;;1.93;;
15425;SDS011;7812;50.072;7.036;2022-11-20T16:38:53;3.33;;;2.80;;
15425;SDS011;7812;50.072;7.036;2022-11-20T16:41:19;2.87;;;1.50;;
15425;SDS011;7812;50.072;7.036;2022-11-20T16:43:49;3.53;;;2.00;;
15425;SDS011;7812;50.072;7.036;2022-11-20T16:46:17;4.10;;;2.03;;
15425;SDS011;7812;50.072;7.036;2022-11-20T16:48:45;3.03;;;1.70;;
15425;SDS011;7812;50.072;7.036;2022-11-20T16:51:17;2.93;;;1.90;;
15425;SDS011;7812;50.072;7.036;2022-11-20T16:53:42;4.80;;;1.67;;
15425;SDS011;7812;50.072;7.036;2022-11-20T16:56:09;3.60;;;2.10;;
15425;SDS011;7812;50.072;7.036;2022-11-20T16:58:46;2.50;;;1.90;;
15425;SDS011;7812;50.072;7.036;2022-11-20T17:01:14;2.30;;;1.57;;
15425;SDS011;7812;50.072;7.036;2022-11-20T17:03:42;3.17;;;1.60;;
15425;SDS011;7812;50.072;7.036;2022-11-20T17:06:20;3.00;;;1.60;;
15425;SDS011;7812;50.072;7.036;2022-11-20T17:08:47;2.33;;;1.93;;
15425;SDS011;7812;50.072;7.036;2022-11-20T17:11:14;1.67;;;1.37;;
15425;SDS011;7812;50.072;7.036;2022-11-20T17:13:42;2.57;;;1.50;;